createdAt,value
2022-12-19T00:00:24.111Z,36.00
2022-12-19T00:01:24.425Z,37.50
2022-12-19T00:02:24.783Z,33.30
2022-12-19T00:03:25.216Z,36.50
2022-12-19T00:04:25.220Z,38.60
2022-12-19T00:05:25.473Z,39.20
2022-12-19T00:06:25.690Z,36.60
2022-12-19T00:07:25.937Z,36.10
2022-12-19T00:08:26.181Z,38.90
2022-12-19T00:09:26.420Z,36.50
2022-12-19T00:10:26.658Z,38.60
2022-12-19T00:11:26.910Z,37.60
2022-12-19T00:12:27.151Z,36.50
2022-12-19T00:13:27.427Z,37.00
2022-12-19T00:14:27.721Z,35.50
2022-12-19T00:15:27.970Z,35.90
2022-12-19T00:16:28.327Z,36.80
2022-12-19T00:17:28.470Z,35.50
2022-12-19T00:18:28.731Z,36.80
2022-12-19T00:19:28.960Z,36.40
2022-12-19T00:20:29.225Z,36.50
2022-12-19T00:21:29.469Z,36.80
2022-12-19T00:22:29.739Z,36.00
2022-12-19T00:23:30.004Z,38.00
2022-12-19T00:24:30.269Z,38.10
2022-12-19T00:25:30.510Z,38.30
2022-12-19T00:26:30.760Z,38.70
2022-12-19T00:27:31.002Z,36.10
2022-12-19T00:28:31.302Z,38.10
2022-12-19T00:29:31.530Z,36.40
2022-12-19T00:30:31.792Z,36.20
2022-12-19T00:31:32.073Z,38.60
2022-12-19T00:32:32.341Z,37.90
2022-12-19T00:33:32.622Z,35.20
2022-12-19T00:34:32.870Z,39.30
2022-12-19T00:35:33.109Z,34.10
2022-12-19T00:36:33.372Z,33.10
2022-12-19T00:37:33.611Z,39.00
2022-12-19T00:38:33.860Z,37.50
2022-12-19T00:39:34.125Z,37.20
2022-12-19T00:40:34.370Z,35.70
2022-12-19T00:41:34.616Z,35.70
2022-12-19T00:42:34.881Z,36.60
2022-12-19T00:43:35.118Z,38.80
2022-12-19T00:44:35.362Z,34.40
2022-12-19T00:45:35.661Z,34.70
2022-12-19T00:46:35.988Z,34.60
2022-12-19T00:47:36.201Z,35.90
2022-12-19T00:48:36.476Z,32.40
2022-12-19T00:49:36.711Z,33.60
2022-12-19T00:50:37.002Z,34.60
2022-12-19T00:51:37.254Z,35.30
2022-12-19T00:52:37.512Z,34.80
2022-12-19T00:53:37.773Z,35.30
2022-12-19T00:54:38.079Z,35.50
2022-12-19T00:55:38.331Z,34.50
2022-12-19T00:56:38.621Z,36.70
2022-12-19T00:57:38.842Z,36.10
2022-12-19T00:58:43.409Z,34.90
2022-12-19T00:59:40.361Z,36.50
2022-12-19T01:00:39.697Z,35.00
2022-12-19T01:01:40.114Z,34.70
2022-12-19T01:02:40.384Z,32.70
2022-12-19T01:03:52.896Z,31.90
2022-12-19T01:04:42.198Z,32.90
2022-12-19T01:05:42.080Z,34.70
2022-12-19T01:06:41.387Z,32.30
2022-12-19T01:07:41.666Z,32.40
2022-12-19T01:08:41.913Z,35.60
2022-12-19T01:09:42.165Z,34.50
2022-12-19T01:10:42.411Z,33.70
2022-12-19T01:11:42.653Z,35.10
2022-12-19T01:12:42.915Z,34.00
2022-12-19T01:13:43.176Z,34.10
2022-12-19T01:14:43.425Z,33.70
2022-12-19T01:15:43.672Z,34.40
2022-12-19T01:16:43.936Z,34.30
2022-12-19T01:17:45.097Z,35.60
2022-12-19T01:18:44.538Z,34.20
2022-12-19T01:19:44.941Z,33.30
2022-12-19T01:20:45.051Z,34.50
2022-12-19T01:21:45.302Z,34.70
2022-12-19T01:22:45.612Z,34.00
2022-12-19T01:23:45.881Z,33.50
2022-12-19T01:24:46.133Z,35.90
2022-12-19T01:25:46.382Z,34.50
2022-12-19T01:26:46.636Z,35.20
2022-12-19T01:27:46.884Z,37.50
2022-12-19T01:28:47.144Z,33.30
2022-12-19T01:29:52.353Z,35.50
2022-12-19T01:30:48.732Z,34.60
2022-12-19T01:31:48.112Z,34.50
2022-12-19T01:32:48.290Z,35.90
2022-12-19T01:33:48.544Z,37.40
2022-12-19T01:34:48.795Z,33.40
2022-12-19T01:35:49.049Z,34.20
2022-12-19T01:36:49.293Z,37.00
2022-12-19T01:37:49.544Z,34.20
2022-12-19T01:38:49.804Z,32.70
2022-12-19T01:39:50.063Z,35.10
2022-12-19T01:40:50.303Z,36.80
2022-12-19T01:41:50.574Z,33.80
2022-12-19T01:42:50.823Z,35.90
2022-12-19T01:43:51.073Z,35.00
2022-12-19T01:44:51.318Z,34.20
2022-12-19T01:45:51.616Z,36.40
2022-12-19T01:46:51.884Z,36.30
2022-12-19T01:47:53.499Z,33.90
2022-12-19T01:48:52.474Z,36.10
2022-12-19T01:49:52.706Z,36.00
2022-12-19T01:51:01.137Z,35.30
2022-12-19T01:51:54.221Z,36.90
2022-12-19T01:52:53.505Z,37.00
2022-12-19T01:53:53.767Z,35.80
2022-12-19T01:54:54.012Z,36.90
2022-12-19T01:55:54.273Z,35.70
2022-12-19T01:56:54.496Z,36.20
2022-12-19T01:57:54.751Z,35.40
2022-12-19T01:59:06.595Z,36.90
2022-12-19T01:59:56.240Z,35.00
2022-12-19T02:00:55.561Z,35.80
2022-12-19T02:01:55.860Z,34.90
2022-12-19T02:02:56.282Z,34.00
2022-12-19T02:03:56.443Z,36.30
2022-12-19T02:04:56.692Z,34.20
2022-12-19T02:05:56.923Z,35.00
2022-12-19T02:06:57.173Z,37.40
2022-12-19T02:07:57.448Z,35.20
2022-12-19T02:08:57.715Z,36.20
2022-12-19T02:09:57.954Z,38.00
2022-12-19T02:10:58.234Z,37.70
2022-12-19T02:11:58.474Z,33.60
2022-12-19T02:12:58.737Z,34.90
2022-12-19T02:13:58.994Z,36.20
2022-12-19T02:15:02.469Z,33.30
2022-12-19T02:15:59.542Z,37.20
2022-12-19T02:16:59.837Z,36.70
2022-12-19T02:18:00.087Z,35.50
2022-12-19T02:19:00.358Z,35.40
2022-12-19T02:20:00.611Z,37.50
2022-12-19T02:21:00.865Z,35.70
2022-12-19T02:22:01.136Z,35.50
2022-12-19T02:23:01.379Z,39.10
2022-12-19T02:24:01.647Z,37.60
2022-12-19T02:25:01.937Z,37.00
2022-12-19T02:26:02.174Z,38.00
2022-12-19T02:27:02.422Z,34.80
2022-12-19T02:28:02.714Z,36.60
2022-12-19T02:29:02.943Z,36.90
2022-12-19T02:30:03.193Z,34.60
2022-12-19T02:31:07.320Z,37.40
2022-12-19T02:32:04.737Z,38.10
2022-12-19T02:33:03.968Z,34.00
2022-12-19T02:34:04.196Z,37.20
2022-12-19T02:35:04.456Z,34.90
2022-12-19T02:36:04.705Z,35.80
2022-12-19T02:37:04.963Z,35.60
2022-12-19T02:38:06.801Z,35.60
2022-12-19T02:39:05.505Z,37.80
2022-12-19T02:40:05.753Z,37.00
2022-12-19T02:41:06.000Z,35.70
2022-12-19T02:42:06.250Z,37.20
2022-12-19T02:43:06.511Z,36.40
2022-12-19T02:44:06.781Z,33.20
2022-12-19T02:45:07.017Z,38.10
2022-12-19T02:46:07.381Z,36.00
2022-12-19T02:47:07.514Z,37.30
2022-12-19T02:48:09.164Z,36.80
2022-12-19T02:49:08.112Z,38.90
2022-12-19T02:50:08.384Z,36.80
2022-12-19T02:51:08.643Z,37.20
2022-12-19T02:52:08.888Z,37.90
2022-12-19T02:53:09.146Z,37.30
2022-12-19T02:54:09.417Z,35.80
2022-12-19T02:55:09.689Z,37.10
2022-12-19T02:56:10.419Z,33.70
2022-12-19T02:57:10.269Z,36.10
2022-12-19T02:58:10.509Z,36.50
2022-12-19T02:59:10.788Z,36.00
2022-12-19T03:00:11.021Z,36.50
2022-12-19T03:01:11.326Z,34.90
2022-12-19T03:02:11.838Z,33.00
2022-12-19T03:03:12.053Z,34.10
2022-12-19T03:04:12.151Z,33.50
2022-12-19T03:05:12.393Z,35.20
2022-12-19T03:06:12.643Z,32.70
2022-12-19T03:07:12.897Z,34.50
2022-12-19T03:08:13.134Z,37.20
2022-12-19T03:09:13.414Z,34.50
2022-12-19T03:10:13.664Z,34.70
2022-12-19T03:11:13.905Z,35.60
2022-12-19T03:12:17.259Z,35.10
2022-12-19T03:13:14.445Z,34.50
2022-12-19T03:14:14.727Z,33.90
2022-12-19T03:15:14.974Z,34.60
2022-12-19T03:16:15.318Z,32.20
2022-12-19T03:17:15.574Z,36.10
2022-12-19T03:18:15.814Z,35.40
2022-12-19T03:19:16.095Z,34.40
2022-12-19T03:20:16.346Z,36.50
2022-12-19T03:21:16.601Z,35.80
2022-12-19T03:22:16.862Z,31.90
2022-12-19T03:23:17.123Z,35.50
2022-12-19T03:24:17.380Z,33.70
2022-12-19T03:25:17.632Z,33.40
2022-12-19T03:26:17.888Z,33.50
2022-12-19T03:27:18.131Z,33.10
2022-12-19T03:28:18.387Z,33.70
2022-12-19T03:29:18.662Z,37.20
2022-12-19T03:30:18.923Z,35.30
2022-12-19T03:31:19.202Z,33.70
2022-12-19T03:32:19.402Z,33.20
2022-12-19T03:33:19.654Z,31.60
2022-12-19T03:34:19.925Z,33.40
2022-12-19T03:35:20.164Z,34.40
2022-12-19T03:36:20.414Z,33.70
2022-12-19T03:37:20.683Z,34.80
2022-12-19T03:38:20.922Z,34.30
2022-12-19T03:39:21.195Z,33.50
2022-12-19T03:40:21.450Z,32.90
2022-12-19T03:41:21.686Z,34.20
2022-12-19T03:42:21.949Z,34.80
2022-12-19T03:43:22.265Z,34.30
2022-12-19T03:44:22.533Z,36.40
2022-12-19T03:45:22.817Z,36.20
2022-12-19T03:46:23.177Z,33.70
2022-12-19T03:47:23.402Z,35.50
2022-12-19T03:48:23.648Z,35.30
2022-12-19T03:49:23.920Z,35.00
2022-12-19T03:50:24.182Z,32.40
2022-12-19T03:51:24.467Z,33.10
2022-12-19T03:52:24.701Z,33.30
2022-12-19T03:53:24.977Z,36.00
2022-12-19T03:54:25.222Z,33.10
2022-12-19T03:55:25.472Z,37.40
2022-12-19T03:56:25.739Z,33.70
2022-12-19T03:57:25.980Z,34.60
2022-12-19T03:58:26.248Z,34.20
2022-12-19T03:59:26.530Z,35.10
2022-12-19T04:00:26.816Z,34.50
2022-12-19T04:01:27.150Z,35.50
2022-12-19T04:02:27.382Z,35.00
2022-12-19T04:03:27.568Z,34.90
2022-12-19T04:04:27.884Z,35.70
2022-12-19T04:05:28.117Z,35.10
2022-12-19T04:06:28.380Z,36.10
2022-12-19T04:07:28.640Z,32.20
2022-12-19T04:08:28.894Z,35.10
2022-12-19T04:09:29.162Z,35.50
2022-12-19T04:10:29.416Z,36.20
2022-12-19T04:11:29.682Z,35.00
2022-12-19T04:12:29.940Z,33.80
2022-12-19T04:13:30.209Z,32.40
2022-12-19T04:14:30.492Z,35.30
2022-12-19T04:15:30.762Z,34.40
2022-12-19T04:16:31.047Z,36.10
2022-12-19T04:17:31.340Z,35.10
2022-12-19T04:18:31.594Z,34.60
2022-12-19T04:19:31.848Z,33.70
2022-12-19T04:20:32.102Z,36.60
2022-12-19T04:21:32.342Z,32.50
2022-12-19T04:22:32.601Z,33.70
2022-12-19T04:23:32.854Z,34.50
2022-12-19T04:24:33.116Z,32.60
2022-12-19T04:25:33.362Z,32.90
2022-12-19T04:26:33.634Z,34.70
2022-12-19T04:27:33.882Z,35.40
2022-12-19T04:28:34.178Z,35.70
2022-12-19T04:29:34.432Z,32.40
2022-12-19T04:30:36.592Z,33.80
2022-12-19T04:31:35.013Z,34.50
2022-12-19T04:32:35.164Z,34.90
2022-12-19T04:33:35.423Z,32.40
2022-12-19T04:34:38.911Z,33.80
2022-12-19T04:35:36.992Z,34.50
2022-12-19T04:36:36.313Z,36.00
2022-12-19T04:37:36.587Z,35.80
2022-12-19T04:38:36.842Z,35.20
2022-12-19T04:39:37.093Z,34.20
2022-12-19T04:40:41.253Z,34.10
2022-12-19T04:41:37.644Z,31.50
2022-12-19T04:42:37.901Z,33.70
2022-12-19T04:43:38.158Z,36.00
2022-12-19T04:44:38.413Z,32.90
2022-12-19T04:45:38.679Z,34.20
2022-12-19T04:46:39.020Z,34.90
2022-12-19T04:47:39.271Z,34.00
2022-12-19T04:48:39.528Z,31.70
2022-12-19T04:49:39.794Z,31.70
2022-12-19T04:50:40.086Z,34.30
2022-12-19T04:51:40.303Z,33.90
2022-12-19T04:52:40.576Z,33.50
2022-12-19T04:53:40.813Z,33.70
2022-12-19T04:54:41.099Z,36.90
2022-12-19T04:55:41.333Z,34.50
2022-12-19T04:56:41.602Z,33.00
2022-12-19T04:57:41.873Z,35.60
2022-12-19T04:58:42.164Z,34.70
2022-12-19T04:59:42.463Z,35.60
2022-12-19T05:00:43.263Z,37.30
2022-12-19T05:01:43.081Z,38.90
2022-12-19T05:02:43.659Z,34.40
2022-12-19T05:03:43.603Z,37.80
2022-12-19T05:04:43.903Z,35.20
2022-12-19T05:05:44.082Z,35.90
2022-12-19T05:06:45.337Z,33.50
2022-12-19T05:07:44.709Z,35.70
2022-12-19T05:08:45.003Z,36.00
2022-12-19T05:09:45.364Z,35.20
2022-12-19T05:10:45.721Z,38.80
2022-12-19T05:11:45.954Z,37.00
2022-12-19T05:12:46.244Z,32.20
2022-12-19T05:13:46.510Z,34.50
2022-12-19T05:14:46.765Z,32.50
2022-12-19T05:15:47.082Z,34.00
2022-12-19T05:16:47.351Z,35.40
2022-12-19T05:17:47.683Z,35.70
2022-12-19T05:18:48.057Z,34.50
2022-12-19T05:19:48.282Z,35.20
2022-12-19T05:20:48.590Z,33.70
2022-12-19T05:21:48.977Z,36.20
2022-12-19T05:22:49.084Z,32.60
2022-12-19T05:23:49.341Z,34.50
2022-12-19T05:24:49.623Z,34.00
2022-12-19T05:25:49.866Z,34.70
2022-12-19T05:26:50.132Z,37.90
2022-12-19T05:27:50.381Z,35.20
2022-12-19T05:28:50.649Z,34.60
2022-12-19T05:29:50.941Z,34.10
2022-12-19T05:30:52.634Z,34.60
2022-12-19T05:31:51.458Z,34.70
2022-12-19T05:32:51.739Z,34.30
2022-12-19T05:33:51.991Z,31.70
2022-12-19T05:34:52.261Z,35.30
2022-12-19T05:35:52.524Z,36.00
2022-12-19T05:36:52.781Z,33.90
2022-12-19T05:37:53.017Z,36.00
2022-12-19T05:38:53.285Z,36.40
2022-12-19T05:39:53.569Z,35.00
2022-12-19T05:40:53.801Z,34.80
2022-12-19T05:41:54.050Z,35.30
2022-12-19T05:42:54.291Z,36.00
2022-12-19T05:43:54.545Z,36.30
2022-12-19T05:44:54.809Z,36.50
2022-12-19T05:45:55.049Z,36.90
2022-12-19T05:46:55.326Z,34.20
2022-12-19T05:47:59.938Z,36.50
2022-12-19T05:48:56.927Z,32.40
2022-12-19T05:49:56.240Z,34.60
2022-12-19T05:50:56.486Z,35.10
2022-12-19T05:51:56.765Z,33.50
2022-12-19T05:52:57.076Z,34.30
2022-12-19T05:53:57.301Z,35.40
2022-12-19T05:54:57.614Z,35.50
2022-12-19T05:55:57.880Z,33.30
2022-12-19T05:56:58.068Z,34.30
2022-12-19T05:57:58.348Z,34.30
2022-12-19T05:58:58.627Z,35.50
2022-12-19T05:59:58.887Z,34.70
2022-12-19T06:01:00.816Z,35.20
2022-12-19T06:01:59.514Z,34.00
2022-12-19T06:02:59.871Z,34.20
2022-12-19T06:04:00.091Z,33.60
2022-12-19T06:05:00.338Z,35.20
2022-12-19T06:06:00.576Z,35.40
2022-12-19T06:07:00.852Z,34.80
2022-12-19T06:08:01.112Z,35.00
2022-12-19T06:09:01.367Z,37.10
2022-12-19T06:10:01.636Z,32.30
2022-12-19T06:11:01.889Z,36.40
2022-12-19T06:12:02.138Z,34.90
2022-12-19T06:13:02.407Z,33.70
2022-12-19T06:14:02.740Z,36.20
2022-12-19T06:15:03.030Z,34.40
2022-12-19T06:16:03.331Z,34.30
2022-12-19T06:17:03.560Z,35.30
2022-12-19T06:18:03.828Z,35.10
2022-12-19T06:19:04.082Z,34.70
2022-12-19T06:20:04.354Z,34.00
2022-12-19T06:21:04.584Z,36.20
2022-12-19T06:22:04.829Z,33.40
2022-12-19T06:23:05.082Z,35.80
2022-12-19T06:24:05.337Z,35.20
2022-12-19T06:25:05.645Z,35.50
2022-12-19T06:26:05.876Z,33.60
2022-12-19T06:27:06.132Z,33.40
2022-12-19T06:28:06.381Z,36.30
2022-12-19T06:29:06.626Z,32.30
2022-12-19T06:30:06.898Z,34.70
2022-12-19T06:31:07.253Z,34.60
2022-12-19T06:32:07.527Z,33.50
2022-12-19T06:33:07.845Z,35.50
2022-12-19T06:34:08.099Z,36.20
2022-12-19T06:35:08.378Z,40.00
2022-12-19T06:36:08.647Z,35.50
2022-12-19T06:37:08.905Z,38.20
2022-12-19T06:38:09.148Z,34.80
2022-12-19T06:39:09.402Z,35.20
2022-12-19T06:40:09.991Z,34.80
2022-12-19T06:41:10.031Z,37.00
2022-12-19T06:42:10.168Z,33.30
2022-12-19T06:43:10.426Z,36.30
2022-12-19T06:44:10.685Z,36.10
2022-12-19T06:45:10.968Z,34.10
2022-12-19T06:46:11.230Z,34.20
2022-12-19T06:47:11.514Z,34.70
2022-12-19T06:48:11.756Z,33.50
2022-12-19T06:49:12.084Z,34.80
2022-12-19T06:50:12.328Z,36.20
2022-12-19T06:51:12.565Z,35.20
2022-12-19T06:52:12.823Z,32.70
2022-12-19T06:53:13.107Z,32.80
2022-12-19T06:54:13.373Z,35.20
2022-12-19T06:55:13.649Z,35.70
2022-12-19T06:56:13.906Z,35.60
2022-12-19T06:57:14.206Z,35.20
2022-12-19T06:58:14.462Z,33.50
2022-12-19T06:59:14.725Z,35.00
2022-12-19T07:00:15.089Z,34.70
2022-12-19T07:01:15.327Z,32.90
2022-12-19T07:02:15.683Z,33.10
2022-12-19T07:03:15.967Z,32.50
2022-12-19T07:04:16.227Z,32.00
2022-12-19T07:05:16.516Z,33.00
2022-12-19T07:06:16.771Z,32.70
2022-12-19T07:07:17.047Z,33.80
2022-12-19T07:08:17.321Z,31.60
2022-12-19T07:09:17.564Z,31.40
2022-12-19T07:10:17.844Z,34.50
2022-12-19T07:11:18.099Z,32.60
2022-12-19T07:12:18.368Z,34.90
2022-12-19T07:13:18.647Z,33.00
2022-12-19T07:14:18.907Z,33.20
2022-12-19T07:15:19.195Z,33.30
2022-12-19T07:16:19.516Z,33.80
2022-12-19T07:17:19.809Z,34.50
2022-12-19T07:18:20.067Z,31.10
2022-12-19T07:19:20.355Z,33.30
2022-12-19T07:20:20.651Z,32.50
2022-12-19T07:21:20.916Z,33.90
2022-12-19T07:22:21.186Z,33.30
2022-12-19T07:23:21.476Z,34.90
2022-12-19T07:24:21.737Z,32.20
2022-12-19T07:25:22.026Z,33.00
2022-12-19T07:26:22.301Z,32.00
2022-12-19T07:27:22.592Z,32.40
2022-12-19T07:28:22.894Z,33.80
2022-12-19T07:29:23.174Z,32.40
2022-12-19T07:30:23.457Z,35.10
2022-12-19T07:31:23.926Z,34.90
2022-12-19T07:32:24.015Z,36.10
2022-12-19T07:33:24.296Z,33.00
2022-12-19T07:34:24.584Z,33.50
2022-12-19T07:35:24.875Z,33.50
2022-12-19T07:36:25.165Z,33.80
2022-12-19T07:37:25.489Z,33.00
2022-12-19T07:38:25.770Z,35.50
2022-12-19T07:39:26.054Z,33.30
2022-12-19T07:40:26.338Z,32.80
2022-12-19T07:41:26.618Z,32.40
2022-12-19T07:42:30.879Z,31.20
2022-12-19T07:43:28.168Z,33.30
2022-12-19T07:44:27.376Z,32.60
2022-12-19T07:45:27.780Z,31.00
2022-12-19T07:46:27.928Z,31.80
2022-12-19T07:47:28.219Z,31.00
2022-12-19T07:48:28.498Z,31.90
2022-12-19T07:49:28.775Z,31.10
2022-12-19T07:50:29.099Z,31.70
2022-12-19T07:51:29.298Z,30.60
2022-12-19T07:52:29.569Z,29.50
2022-12-19T07:53:29.836Z,31.40
2022-12-19T07:54:30.139Z,30.10
2022-12-19T07:55:30.414Z,31.20
2022-12-19T07:56:30.708Z,30.40
2022-12-19T07:57:31.005Z,29.50
2022-12-19T07:58:31.297Z,31.80
2022-12-19T07:59:38.695Z,30.70
2022-12-19T08:00:32.836Z,30.60
2022-12-19T08:01:32.124Z,33.00
2022-12-19T08:02:32.473Z,30.10
2022-12-19T08:03:32.567Z,30.70
2022-12-19T08:04:32.858Z,30.70
2022-12-19T08:05:33.169Z,31.30
2022-12-19T08:06:39.100Z,31.90
2022-12-19T08:07:34.706Z,30.70
2022-12-19T08:08:34.048Z,32.00
2022-12-19T08:09:34.297Z,31.60
2022-12-19T08:10:34.575Z,30.90
2022-12-19T08:11:34.871Z,31.30
2022-12-19T08:12:35.149Z,30.80
2022-12-19T08:13:39.694Z,31.50
2022-12-19T08:14:36.687Z,32.50
2022-12-19T08:15:36.057Z,31.30
2022-12-19T08:16:55.489Z,30.10
2022-12-19T08:17:37.622Z,33.10
2022-12-19T08:18:36.850Z,29.30
2022-12-19T08:19:37.159Z,30.20
2022-12-19T08:20:37.485Z,29.80
2022-12-19T08:21:37.755Z,30.90
2022-12-19T08:22:38.056Z,31.60
2022-12-19T08:23:38.307Z,30.40
2022-12-19T08:24:38.600Z,32.90
2022-12-19T08:25:38.886Z,31.00
2022-12-19T08:26:43.191Z,30.40
2022-12-19T08:27:40.446Z,32.50
2022-12-19T08:28:39.799Z,29.30
2022-12-19T08:29:40.133Z,30.50
2022-12-19T08:30:40.481Z,31.30
2022-12-19T08:31:40.725Z,29.20
2022-12-19T08:32:41.020Z,28.40
2022-12-19T08:33:41.341Z,27.70
2022-12-19T08:34:41.654Z,28.20
2022-12-19T08:35:42.039Z,28.50
2022-12-19T08:36:42.210Z,27.00
2022-12-19T08:37:42.529Z,28.60
2022-12-19T08:38:42.784Z,27.20
2022-12-19T08:39:43.092Z,28.50
2022-12-19T08:40:47.350Z,30.50
2022-12-19T08:41:43.693Z,31.60
2022-12-19T08:42:44.010Z,30.50
2022-12-19T08:43:44.310Z,30.50
2022-12-19T08:44:44.662Z,30.60
2022-12-19T08:45:44.973Z,29.00
2022-12-19T08:46:49.920Z,28.20
2022-12-19T08:47:46.540Z,28.30
2022-12-19T08:48:45.795Z,27.90
2022-12-19T08:49:46.091Z,28.50
2022-12-19T08:50:46.395Z,28.10
2022-12-19T08:51:46.712Z,28.40
2022-12-19T08:52:47.033Z,27.80
2022-12-19T08:53:47.320Z,27.50
2022-12-19T08:54:47.628Z,27.50
2022-12-19T08:55:47.989Z,27.60
2022-12-19T08:56:48.202Z,27.10
2022-12-19T08:57:48.512Z,26.70
2022-12-19T08:58:48.802Z,27.50
2022-12-19T08:59:49.094Z,27.60
2022-12-19T09:00:55.518Z,26.40
2022-12-19T09:01:50.752Z,25.30
2022-12-19T09:02:50.164Z,24.70
2022-12-19T09:04:04.580Z,26.60
2022-12-19T09:05:59.558Z,27.00
2022-12-19T09:06:05.101Z,28.00
2022-12-19T09:06:52.178Z,26.30
2022-12-19T09:07:51.421Z,27.80
2022-12-19T09:08:51.704Z,27.20
2022-12-19T09:09:52.569Z,26.60
2022-12-19T09:10:52.312Z,27.60
2022-12-19T09:11:52.625Z,26.10
2022-12-19T09:12:56.450Z,26.40
2022-12-19T09:13:54.172Z,26.50
2022-12-19T09:14:53.544Z,25.60
2022-12-19T09:15:53.838Z,23.90
2022-12-19T09:16:54.223Z,25.30
2022-12-19T09:17:54.370Z,26.40
2022-12-19T09:18:54.685Z,26.30
2022-12-19T09:19:54.994Z,24.60
2022-12-19T09:20:55.353Z,25.60
2022-12-19T09:21:55.521Z,25.20
2022-12-19T09:22:55.811Z,24.80
2022-12-19T09:23:59.326Z,24.60
2022-12-19T09:24:57.408Z,24.30
2022-12-19T09:25:56.631Z,25.60
2022-12-19T09:26:56.955Z,24.80
2022-12-19T09:28:26.459Z,24.30
2022-12-19T09:28:58.600Z,25.30
2022-12-19T09:29:57.834Z,24.80
2022-12-19T09:30:58.221Z,24.70
2022-12-19T09:31:58.415Z,25.40
2022-12-19T09:32:58.778Z,23.60
2022-12-19T09:33:58.952Z,25.20
2022-12-19T09:34:59.254Z,23.90
2022-12-19T09:35:59.573Z,25.10
2022-12-19T09:36:59.883Z,24.50
2022-12-19T09:38:00.742Z,25.90
2022-12-19T09:39:00.405Z,26.50
2022-12-19T09:40:00.743Z,25.00
2022-12-19T09:41:01.054Z,24.90
2022-12-19T09:42:01.360Z,24.30
2022-12-19T09:43:01.667Z,24.80
2022-12-19T09:44:02.225Z,24.20
2022-12-19T09:45:02.272Z,23.20
2022-12-19T09:46:02.638Z,24.70
2022-12-19T09:47:02.831Z,25.80
2022-12-19T09:48:03.117Z,24.10
2022-12-19T09:49:03.286Z,23.90
2022-12-19T09:50:03.595Z,26.90
2022-12-19T09:51:09.653Z,24.90
2022-12-19T09:52:05.214Z,24.10
2022-12-19T09:53:04.440Z,25.20
2022-12-19T09:54:04.753Z,24.40
2022-12-19T09:55:05.074Z,26.00
2022-12-19T09:56:05.356Z,24.80
2022-12-19T09:57:05.654Z,24.30
2022-12-19T09:58:06.196Z,23.80
2022-12-19T09:59:06.233Z,26.40
2022-12-19T10:00:06.514Z,25.10
2022-12-19T10:01:06.869Z,25.30
2022-12-19T10:02:07.191Z,25.20
2022-12-19T10:03:07.474Z,24.90
2022-12-19T10:04:07.646Z,24.30
2022-12-19T10:05:30.167Z,23.50
2022-12-19T10:07:10.623Z,23.40
2022-12-19T10:07:30.564Z,23.90
2022-12-19T10:08:10.473Z,24.60
2022-12-19T10:11:07.323Z,25.20
2022-12-19T10:12:36.578Z,26.00
2022-12-19T10:12:46.643Z,25.70
2022-12-19T10:12:47.488Z,27.00
2022-12-19T10:13:13.536Z,25.80
2022-12-19T10:14:10.596Z,23.80
2022-12-19T10:15:10.908Z,25.90
2022-12-19T10:16:11.259Z,26.40
2022-12-19T10:17:26.787Z,26.30
2022-12-19T10:18:12.744Z,25.60
2022-12-19T10:19:11.958Z,25.60
2022-12-19T10:20:12.269Z,26.00
2022-12-19T10:21:12.568Z,25.50
2022-12-19T10:22:19.954Z,24.30
2022-12-19T10:23:14.137Z,25.70
2022-12-19T10:24:13.353Z,24.60
2022-12-19T10:25:13.659Z,23.60
2022-12-19T10:26:13.958Z,24.80
2022-12-19T10:27:14.240Z,24.00
2022-12-19T10:28:14.534Z,22.80
2022-12-19T10:29:14.827Z,24.90
2022-12-19T10:30:15.106Z,24.50
2022-12-19T10:31:21.578Z,24.00
2022-12-19T10:32:16.771Z,23.90
2022-12-19T10:33:20.669Z,24.70
2022-12-19T10:34:17.213Z,23.00
2022-12-19T10:35:16.438Z,23.60
2022-12-19T10:36:16.758Z,25.20
2022-12-19T10:37:27.585Z,25.30
2022-12-19T10:38:18.340Z,24.50
2022-12-19T10:39:17.685Z,23.30
2022-12-19T10:40:27.195Z,22.70
2022-12-19T10:41:19.254Z,23.30
2022-12-19T10:42:18.500Z,23.50
2022-12-19T10:43:28.637Z,22.10
2022-12-19T10:44:20.048Z,21.60
2022-12-19T10:45:19.315Z,21.60
2022-12-19T10:46:19.676Z,23.80
2022-12-19T10:47:19.851Z,22.50
2022-12-19T10:48:22.478Z,24.20
2022-12-19T10:49:21.437Z,23.80
2022-12-19T10:50:20.762Z,22.30
2022-12-19T10:51:21.065Z,23.10
2022-12-19T10:52:21.333Z,23.40
2022-12-19T10:53:21.609Z,23.30
2022-12-19T10:54:21.954Z,23.50
2022-12-19T10:55:22.300Z,23.30
2022-12-19T10:56:22.651Z,23.20
2022-12-19T10:57:22.953Z,23.60
2022-12-19T10:58:23.253Z,23.40
2022-12-19T10:59:23.565Z,22.70
2022-12-19T11:00:23.840Z,22.60
2022-12-19T11:01:25.040Z,24.40
2022-12-19T11:02:24.474Z,23.20
2022-12-19T11:03:24.852Z,22.90
2022-12-19T11:04:25.056Z,23.40
2022-12-19T11:05:25.323Z,22.10
2022-12-19T11:06:25.653Z,21.90
2022-12-19T11:07:25.938Z,22.30
2022-12-19T11:08:26.311Z,23.60
2022-12-19T11:09:26.530Z,21.60
2022-12-19T11:11:15.496Z,24.10
2022-12-19T11:12:33.594Z,22.90
2022-12-19T11:15:55.605Z,23.10
2022-12-19T11:18:20.906Z,22.80
2022-12-19T11:18:27.803Z,24.20
2022-12-19T11:19:21.245Z,24.10
2022-12-19T11:19:30.475Z,22.50
2022-12-19T11:21:17.263Z,23.00
2022-12-19T11:25:22.518Z,23.50
2022-12-19T11:29:17.483Z,22.10
2022-12-19T11:29:26.221Z,21.60
2022-12-19T11:29:27.251Z,23.00
2022-12-19T11:29:30.355Z,22.20
2022-12-19T11:29:33.807Z,21.80
2022-12-19T11:29:40.931Z,22.30
2022-12-19T11:29:41.073Z,22.90
2022-12-19T11:29:43.288Z,22.90
2022-12-19T11:30:25.736Z,22.90
2022-12-19T11:30:41.367Z,23.20
2022-12-19T11:32:44.515Z,22.00
2022-12-19T11:33:34.636Z,22.90
2022-12-19T11:34:33.904Z,21.50
2022-12-19T11:35:36.646Z,22.80
2022-12-19T11:36:34.513Z,22.10
2022-12-19T11:37:34.796Z,22.50
2022-12-19T11:38:35.083Z,22.10
2022-12-19T11:39:35.437Z,22.50
2022-12-19T11:40:35.751Z,22.70
2022-12-19T11:41:36.097Z,22.10
2022-12-19T11:42:36.295Z,24.80
2022-12-19T11:43:45.828Z,23.50
2022-12-19T11:44:37.933Z,22.40
2022-12-19T11:45:37.147Z,23.70
2022-12-19T11:46:37.502Z,22.60
2022-12-19T11:47:37.818Z,22.60
2022-12-19T11:48:38.133Z,22.20
2022-12-19T11:49:38.463Z,22.00
2022-12-19T11:50:38.691Z,22.20
2022-12-19T11:51:39.019Z,21.90
2022-12-19T11:53:04.149Z,22.10
2022-12-19T11:53:40.617Z,23.00
2022-12-19T11:54:39.892Z,21.80
2022-12-19T11:55:40.193Z,22.60
2022-12-19T11:56:40.503Z,24.30
2022-12-19T11:57:40.817Z,22.50
2022-12-19T11:58:41.119Z,22.30
2022-12-19T11:59:41.424Z,22.00
2022-12-19T12:00:41.724Z,21.60
2022-12-19T12:01:42.091Z,23.50
2022-12-19T12:02:42.287Z,23.40
2022-12-19T12:03:42.723Z,21.80
2022-12-19T12:04:43.875Z,21.50
2022-12-19T12:05:43.100Z,21.60
2022-12-19T12:06:45.541Z,23.00
2022-12-19T12:10:12.742Z,23.40
2022-12-19T12:10:27.941Z,25.30
2022-12-19T12:12:52.575Z,23.60
2022-12-19T12:14:10.385Z,23.80
2022-12-19T12:19:10.296Z,23.10
2022-12-19T12:21:01.912Z,24.30
2022-12-19T12:21:44.754Z,23.60
2022-12-19T12:25:10.782Z,23.00
2022-12-19T12:27:43.822Z,22.40
2022-12-19T12:29:15.779Z,21.00
2022-12-19T12:31:00.481Z,22.10
2022-12-19T12:31:05.598Z,22.50
2022-12-19T12:31:07.544Z,20.70
2022-12-19T12:31:07.646Z,22.00
2022-12-19T12:31:08.294Z,23.00
2022-12-19T12:31:22.292Z,21.20
2022-12-19T12:31:41.610Z,21.60
2022-12-19T12:31:43.407Z,21.60
2022-12-19T12:31:50.281Z,22.00
2022-12-19T12:31:51.155Z,20.60
2022-12-19T12:31:53.295Z,23.50
2022-12-19T12:32:00.979Z,22.60
2022-12-19T12:32:02.749Z,21.60
2022-12-19T12:32:04.540Z,19.90
2022-12-19T12:35:33.641Z,22.30
2022-12-19T12:35:42.530Z,20.30
2022-12-19T12:35:46.387Z,21.90
2022-12-19T12:35:51.344Z,20.70
2022-12-19T12:38:54.344Z,21.50
2022-12-19T12:39:53.502Z,22.10
2022-12-19T12:40:53.792Z,21.70
2022-12-19T12:41:54.160Z,19.90
2022-12-19T12:42:54.442Z,20.30
2022-12-19T12:43:54.741Z,19.50
2022-12-19T12:44:54.908Z,22.30
2022-12-19T12:45:55.399Z,20.70
2022-12-19T12:46:55.450Z,22.50
2022-12-19T12:47:55.782Z,20.40
2022-12-19T12:48:56.082Z,21.00
2022-12-19T12:49:56.401Z,20.50
2022-12-19T12:50:56.724Z,20.30
2022-12-19T12:51:57.114Z,20.10
2022-12-19T12:52:57.374Z,20.80
2022-12-19T12:53:57.541Z,19.40
2022-12-19T12:54:57.929Z,20.30
2022-12-19T12:55:58.095Z,20.10
2022-12-19T12:56:58.436Z,20.30
2022-12-19T12:57:58.723Z,20.00
2022-12-19T12:58:59.017Z,19.90
2022-12-19T12:59:59.343Z,19.40
2022-12-19T13:00:59.689Z,19.60
2022-12-19T13:02:00.499Z,22.40